joomla templates top joomla templates template joomla

King Air Abend

Wetterbeurteilung mit Hilfe Webcam und ATIS

 

Webcam 1Webcam 2

(Zum vergrößern auf das Bild klicken)

Notam

C3641/14 - CUSTOMS AVBL PPR, TEL 0049 9561 92098. 13 NOV 14:46 2014 UNTIL PERM. CREATED: 13 NOV 14:47 2014

Wetteranzeige

Aktuelles Platzwetter Stand 18.12.2017 08:52Z

AvgMinMax
Windrichtung180170200Deg
Windgeschwindigkeit749kt
Sichtweite>10000m
Temperatur-1°C
Taupunkt/////°C
Feuchte/////%
QNH1021.4hPa
QFE967.6hPa
WolkenSKC

Aerodrome Terminal Information Service (ATIS) Coburg

METAR
EDQC 180850Z AUTO 19006KT CAVOK M01/// Q1021=

METAR und TAF der Umgebung

[Quelle: ADDS]
METAR
EDDF 180820Z 17007KT 150V220 7000 -SN FEW004 BKN006 OVC023 00/M00 Q1021 R25R///99// R25C/620395 R25L/620295 R18/29//95 NOSIG =
EDDN 180820Z 14005KT 9999 SCT046 BKN095 00/M02 Q1022 R28/19//95 NOSIG =
EDDE 180820Z 16005KT 9999 SCT027 BKN100 01/M02 Q1021 NOSIG =
TAF
EDDF 180500Z 1806/1912 18006KT 6000 BKN015 TEMPO 1806/1811 2000 SN BKN007 PROB30 TEMPO 1806/1808 0900 +SN BKN004 BECMG 1809/1812 12005KT TEMPO 1811/1816 RASN BKN012 TEMPO 1818/1912 BKN012 TEMPO 1900/1906 4500 BR PROB30 TEMPO 1906/1912 4500 RA BR BKN008 =
EDDN 180500Z 1806/1906 21005KT 9999 SCT014 BKN040 BECMG 1807/1809 15006KT PROB30 TEMPO 1809/1812 4500 -SN BKN012 BECMG 1902/1904 BKN014 =
EDDE 180500Z 1806/1906 18007KT 9999 BKN030 PROB30 TEMPO 1806/1810 4500 -SN BECMG 1812/1814 VRB03KT BECMG 1819/1821 23007KT =

Wetterverlauf

Windvorhersage

Verkehrslandeplatz Coburg Brandensteinsebene
Tower
Zur Brandensteinsebene
96450 Coburg

 

Telefon +49 (0) 95 61 / 9 20 98
Telefax +49 (0) 95 61 / 9 20 06